Time;durP1;ratioP1;P1;durP2;ratioP2;P2;SDS_P1;SDS_P2;PMS_P1;PMS_P2;Temp;Humidity;BMP_temperature;BMP_pressure;BME280_temperature;BME280_humidity;BME280_pressure;Samples;Min_cycle;Max_cycle;Signal;HPM_P1;HPM_P2
2024/02/11 00:01:51;;;;;;;8.07;3.15;;;;;;;11.80;100.00;98356.38;6296719;28;20394;-80
2024/02/11 00:04:52;;;;;;;11.80;2.42;;;;;;;11.76;100.00;98364.66;6289395;28;20044;-80
2024/02/11 00:07:53;;;;;;;7.15;3.25;;;;;;;11.74;100.00;98359.56;6303998;28;20490;-80
2024/02/11 00:10:54;;;;;;;6.03;2.75;;;;;;;11.81;100.00;98346.75;6322013;28;20074;-81
2024/02/11 00:13:55;;;;;;;9.82;3.22;;;;;;;11.72;100.00;98343.19;6303521;28;20044;-81
2024/02/11 00:16:59;;;;;;;11.88;3.08;;;;;;;11.53;100.00;98331.03;6303781;28;20484;-82
2024/02/11 00:20:01;;;;;;;7.68;2.85;;;;;;;11.72;100.00;98322.28;6275477;28;20049;-81
2024/02/11 00:23:04;;;;;;;7.33;2.97;;;;;;;11.83;100.00;98323.91;6271790;28;20467;-81
2024/02/11 00:26:07;;;;;;;6.78;2.90;;;;;;;11.82;100.00;98317.84;6250091;28;20136;-80
2024/02/11 00:29:09;;;;;;;4.70;2.47;;;;;;;11.78;100.00;98310.47;6244777;28;20133;-80
2024/02/11 00:32:12;;;;;;;9.75;2.55;;;;;;;11.98;100.00;98298.13;6245980;28;20053;-81
2024/02/11 00:35:17;;;;;;;7.82;2.35;;;;;;;11.91;100.00;98297.09;6257966;28;20052;-81
2024/02/11 00:38:20;;;;;;;12.73;3.13;;;;;;;11.87;100.00;98288.66;6271392;28;20056;-81
2024/02/11 00:41:21;;;;;;;6.10;2.25;;;;;;;11.87;100.00;98286.06;6271614;28;20106;-81
2024/02/11 00:44:22;;;;;;;8.95;2.80;;;;;;;11.96;100.00;98279.16;6271319;28;20048;-82
2024/02/11 00:47:23;;;;;;;4.97;2.58;;;;;;;11.92;100.00;98283.03;6270119;28;20102;-82
2024/02/11 00:50:23;;;;;;;5.65;2.20;;;;;;;11.96;100.00;98292.22;6270116;28;20056;-81
2024/02/11 00:53:25;;;;;;;9.35;2.40;;;;;;;11.88;100.00;98283.34;6270910;28;20044;-82
2024/02/11 00:56:26;;;;;;;7.20;2.45;;;;;;;11.91;100.00;98278.78;6251303;28;20494;-82
2024/02/11 00:59:27;;;;;;;2.55;1.80;;;;;;;11.92;100.00;98288.25;6244086;28;20057;-81
2024/02/11 01:02:29;;;;;;;3.30;2.05;;;;;;;11.94;100.00;98274.06;6245209;28;20052;-82
2024/02/11 01:05:30;;;;;;;10.90;2.42;;;;;;;11.86;100.00;98272.19;6245388;28;20062;-81
2024/02/11 01:08:31;;;;;;;8.75;2.30;;;;;;;11.87;100.00;98278.22;6264047;28;20135;-81
2024/02/11 01:11:32;;;;;;;9.88;2.95;;;;;;;12.02;100.00;98278.56;6270008;28;20049;-82
2024/02/11 01:14:33;;;;;;;6.85;2.78;;;;;;;11.95;100.00;98262.66;6271026;28;20045;-81
2024/02/11 01:17:34;;;;;;;5.95;2.83;;;;;;;11.85;100.00;98283.59;6271032;28;20742;-81
2024/02/11 01:20:34;;;;;;;10.65;3.72;;;;;;;11.91;100.00;98266.53;6320120;28;20060;-82
2024/02/11 01:23:35;;;;;;;7.05;3.00;;;;;;;11.80;100.00;98270.13;6321331;28;20149;-81
2024/02/11 01:26:37;;;;;;;15.30;3.58;;;;;;;11.76;100.00;98266.19;6321485;28;20048;-81
2024/02/11 01:29:38;;;;;;;10.75;3.67;;;;;;;11.82;100.00;98264.75;6291895;28;20476;-81
2024/02/11 01:32:39;;;;;;;6.40;3.10;;;;;;;11.76;100.00;98266.19;6303291;28;20048;-81
2024/02/11 01:35:43;;;;;;;9.50;3.63;;;;;;;11.80;100.00;98262.31;6320797;28;20150;-81
2024/02/11 01:38:43;;;;;;;7.30;3.70;;;;;;;11.87;100.00;98258.13;6321035;28;20397;-80
2024/02/11 01:41:44;;;;;;;8.90;3.30;;;;;;;11.83;100.00;98242.88;6302412;28;20048;-80
2024/02/11 01:44:45;;;;;;;15.45;5.40;;;;;;;11.70;100.00;98251.88;6288856;28;20044;-80
2024/02/11 01:47:46;;;;;;;18.42;7.63;;;;;;;11.67;100.00;98248.75;6309656;28;20052;-80
2024/02/11 01:50:52;;;;;;;18.83;8.13;;;;;;;11.75;100.00;98248.84;6306598;28;20040;-80
2024/02/11 01:53:53;;;;;;;13.93;4.80;;;;;;;11.71;100.00;98229.19;6301621;28;20093;-80
2024/02/11 01:56:54;;;;;;;16.23;4.03;;;;;;;11.61;100.00;98215.34;6303905;28;20127;-80
2024/02/11 01:59:55;;;;;;;8.05;3.55;;;;;;;11.82;100.00;98209.88;6305837;28;20048;-80
2024/02/11 02:02:56;;;;;;;9.05;3.58;;;;;;;11.75;100.00;98206.22;6323277;28;20071;-80
2024/02/11 02:05:57;;;;;;;7.30;3.63;;;;;;;11.71;100.00;98203.06;6307267;28;20428;-80
2024/02/11 02:08:59;;;;;;;6.75;2.88;;;;;;;11.74;100.00;98188.91;6301273;28;20066;-80
2024/02/11 02:12:04;;;;;;;4.75;2.90;;;;;;;11.80;100.00;98190.94;6309773;28;20480;-80
2024/02/11 02:15:08;;;;;;;13.70;3.83;;;;;;;11.76;100.00;98185.19;6313779;28;20128;-80
2024/02/11 02:18:10;;;;;;;9.07;2.90;;;;;;;11.61;100.00;98178.78;6294094;28;20415;-81
2024/02/11 02:21:10;;;;;;;11.45;4.45;;;;;;;11.67;100.00;98184.28;6285322;28;20086;-80
2024/02/11 02:24:13;;;;;;;14.05;5.47;;;;;;;11.67;100.00;98183.44;6314084;28;20482;-81
2024/02/11 02:27:15;;;;;;;15.40;5.88;;;;;;;11.67;100.00;98186.03;6298529;28;20463;-80
2024/02/11 02:30:19;;;;;;;9.32;3.03;;;;;;;11.57;100.00;98191.34;6280723;28;20067;-81
2024/02/11 02:33:22;;;;;;;14.32;4.75;;;;;;;11.57;100.00;98193.94;6281268;28;20510;-81
2024/02/11 02:36:23;;;;;;;11.52;4.65;;;;;;;11.54;100.00;98183.78;6287912;28;20052;-80
2024/02/11 02:39:24;;;;;;;13.63;4.30;;;;;;;11.55;100.00;98192.41;6283240;28;20400;-81
2024/02/11 02:42:25;;;;;;;9.98;4.10;;;;;;;11.60;100.00;98180.59;6294865;28;20544;-80
2024/02/11 02:45:26;;;;;;;12.32;4.53;;;;;;;11.59;100.00;98189.41;6308535;28;20048;-80
2024/02/11 02:48:28;;;;;;;10.27;3.80;;;;;;;11.68;100.00;98192.91;6280819;28;20106;-81
2024/02/11 02:51:29;;;;;;;11.20;3.85;;;;;;;11.59;100.00;98189.41;6306868;28;20052;-80
2024/02/11 02:54:30;;;;;;;12.15;4.28;;;;;;;11.54;100.00;98181.16;6284097;28;20067;-80
2024/02/11 02:57:30;;;;;;;6.32;3.00;;;;;;;11.79;98.87;98184.88;6296947;28;20511;-81
2024/02/11 03:00:34;;;;;;;10.93;3.60;;;;;;;11.73;98.48;98171.56;6296582;28;20435;-81
2024/02/11 03:03:35;;;;;;;13.93;4.30;;;;;;;11.76;97.36;98163.47;6297223;28;20075;-80
2024/02/11 03:06:37;;;;;;;9.82;3.75;;;;;;;11.81;98.38;98169.88;6298063;28;20044;-80
2024/02/11 03:09:37;;;;;;;8.93;3.50;;;;;;;11.72;96.40;98165.53;6292019;28;20463;-80
2024/02/11 03:12:38;;;;;;;8.52;3.63;;;;;;;11.84;95.99;98166.97;6298013;28;20074;-80
2024/02/11 03:15:39;;;;;;;5.93;3.25;;;;;;;11.87;94.09;98177.13;6292576;28;20059;-80
2024/02/11 03:18:40;;;;;;;15.75;3.28;;;;;;;12.03;94.02;98173.88;6281246;28;20416;-80
2024/02/11 03:21:42;;;;;;;10.43;3.47;;;;;;;11.99;93.84;98172.53;6280310;28;20052;-80
2024/02/11 03:24:45;;;;;;;9.77;3.63;;;;;;;11.88;94.86;98154.41;6306742;28;20565;-80
2024/02/11 03:27:52;;;;;;;16.70;5.97;;;;;;;11.81;95.92;98174.28;6322858;28;20048;-81
2024/02/11 03:30:53;;;;;;;19.38;5.65;;;;;;;11.85;96.59;98170.41;6306966;28;20071;-80
2024/02/11 03:33:56;;;;;;;8.68;3.95;;;;;;;11.77;95.38;98160.69;6295211;28;20481;-81
2024/02/11 03:36:57;;;;;;;8.45;3.28;;;;;;;11.79;94.97;98163.97;6280325;28;20040;-81
2024/02/11 03:39:57;;;;;;;13.18;4.15;;;;;;;11.75;93.71;98160.00;6303786;28;20056;-81
2024/02/11 03:43:01;;;;;;;8.70;3.75;;;;;;;11.81;94.44;98158.59;6279568;28;20094;-81
2024/02/11 03:46:02;;;;;;;5.72;2.97;;;;;;;11.75;95.37;98159.19;6279932;28;20087;-81
2024/02/11 03:49:02;;;;;;;6.68;2.90;;;;;;;11.78;93.77;98151.06;6298121;28;20044;-81
2024/02/11 03:52:06;;;;;;;6.80;3.40;;;;;;;11.93;92.54;98151.41;6296142;28;20396;-81
2024/02/11 03:55:10;;;;;;;5.97;3.28;;;;;;;11.93;91.86;98154.84;6279751;28;20048;-81
2024/02/11 03:58:12;;;;;;;12.85;3.70;;;;;;;11.86;91.45;98125.00;6279545;28;20496;-81
2024/02/11 04:01:15;;;;;;;7.78;3.08;;;;;;;11.96;91.11;98140.63;6279399;28;20467;-81
2024/02/11 04:04:17;;;;;;;7.32;3.05;;;;;;;11.96;93.57;98156.31;6296790;28;20542;-81
2024/02/11 04:07:20;;;;;;;8.52;3.80;;;;;;;11.84;93.07;98153.06;6297224;28;20059;-81
2024/02/11 04:10:22;;;;;;;;;;;;;;;11.89;93.54;98161.31;6297081;28;20048;-81
2024/02/11 04:13:26;;;;;;;14.85;3.05;;;;;;;11.87;94.39;98152.78;6296668;28;19928;-81
2024/02/11 04:16:28;;;;;;;14.38;3.63;;;;;;;11.88;95.35;98159.63;6279436;28;20052;-82
2024/02/11 04:19:32;;;;;;;5.70;2.60;;;;;;;11.78;96.31;98149.28;6296600;28;20544;-81
2024/02/11 04:22:33;;;;;;;4.07;2.33;;;;;;;11.77;98.36;98145.00;6278768;28;20182;-80
2024/02/11 04:25:37;;;;;;;6.32;2.70;;;;;;;11.68;100.00;98135.44;6277987;28;20041;-80
2024/02/11 04:28:37;;;;;;;6.70;2.38;;;;;;;11.57;100.00;98127.81;6299567;28;20490;-80
2024/02/11 04:31:41;;;;;;;5.13;2.40;;;;;;;11.52;100.00;98125.63;6303179;28;20052;-80
2024/02/11 04:34:42;;;;;;;8.35;3.38;;;;;;;11.39;100.00;98105.09;6296673;28;20102;-80
2024/02/11 04:37:47;;;;;;;7.65;2.38;;;;;;;11.34;100.00;98104.69;6278500;28;20076;-80
2024/02/11 04:40:47;;;;;;;5.13;2.17;;;;;;;11.23;100.00;98084.84;6319160;28;20104;-80
2024/02/11 04:43:48;;;;;;;6.55;2.85;;;;;;;11.17;100.00;98074.16;6282819;28;20119;-80
2024/02/11 04:46:49;;;;;;;6.97;2.97;;;;;;;11.18;100.00;98052.31;6278138;28;20048;-80
2024/02/11 04:49:53;;;;;;;6.18;2.20;;;;;;;11.20;100.00;98040.78;6291483;28;20522;-80
2024/02/11 04:52:56;;;;;;;5.32;2.22;;;;;;;11.26;100.00;98039.34;6294662;28;20067;-80
2024/02/11 04:56:03;;;;;;;3.40;2.17;;;;;;;11.29;100.00;98041.69;6300044;28;20127;-80
2024/02/11 04:59:04;;;;;;;8.25;2.65;;;;;;;11.20;100.00;98051.22;6277920;28;20495;-80
2024/02/11 05:02:05;;;;;;;6.35;3.05;;;;;;;11.16;100.00;98042.03;6308763;28;20052;-80
2024/02/11 05:05:07;;;;;;;7.68;3.05;;;;;;;11.20;100.00;98058.19;6292008;28;20449;-82
2024/02/11 05:08:07;;;;;;;6.68;2.70;;;;;;;11.20;100.00;98047.75;6302183;28;20059;-82
2024/02/11 05:11:10;;;;;;;7.40;2.65;;;;;;;11.20;100.00;98045.16;6283704;28;20420;-81
2024/02/11 05:14:12;;;;;;;5.18;2.45;;;;;;;11.16;100.00;98044.66;6278097;28;20105;-80
2024/02/11 05:17:15;;;;;;;7.45;2.90;;;;;;;11.09;100.00;98061.84;6300426;28;20056;-80
2024/02/11 05:20:25;;;;;;;7.70;2.25;;;;;;;11.13;100.00;98050.13;6295748;28;20057;-80
2024/02/11 05:23:29;;;;;;;9.30;3.60;;;;;;;11.17;100.00;98061.94;6316709;28;20079;-80
2024/02/11 05:26:29;;;;;;;10.18;3.83;;;;;;;11.15;100.00;98066.47;6287019;28;20052;-81
2024/02/11 05:29:33;;;;;;;7.85;3.65;;;;;;;11.18;100.00;98058.38;6326680;28;20094;-82
2024/02/11 05:32:35;;;;;;;10.18;3.10;;;;;;;11.10;100.00;98053.06;6326789;28;20047;-82
2024/02/11 05:35:39;;;;;;;7.32;3.53;;;;;;;11.08;100.00;98047.16;6322569;28;20450;-82
2024/02/11 05:38:40;;;;;;;17.25;3.67;;;;;;;11.10;100.00;98058.28;6308532;28;20052;-82
2024/02/11 05:41:41;;;;;;;9.85;3.97;;;;;;;11.21;100.00;98055.44;6308569;28;20055;-82
2024/02/11 05:44:43;;;;;;;7.57;3.00;;;;;;;11.17;100.00;98054.09;6300508;28;20044;-82
2024/02/11 05:47:44;;;;;;;8.30;3.83;;;;;;;11.02;100.00;98052.97;6283651;28;20055;-82
2024/02/11 05:50:47;;;;;;;7.57;2.90;;;;;;;11.05;100.00;98048.25;6291606;28;20084;-82
2024/02/11 05:53:50;;;;;;;8.65;3.95;;;;;;;11.11;100.00;98043.44;6282821;28;20452;-82
2024/02/11 05:56:51;;;;;;;11.75;4.10;;;;;;;11.12;100.00;98043.28;6294339;28;20060;-82
2024/02/11 05:59:55;;;;;;;11.30;4.70;;;;;;;11.12;100.00;98035.47;6310646;28;20084;-82
2024/02/11 06:02:58;;;;;;;9.75;3.78;;;;;;;11.20;100.00;98030.34;6285242;28;20098;-82
2024/02/11 06:05:59;;;;;;;11.10;3.90;;;;;;;11.17;100.00;98022.78;6304649;28;20047;-82
2024/02/11 06:09:00;;;;;;;7.10;2.72;;;;;;;11.15;100.00;98021.28;6309521;28;20040;-82
2024/02/11 06:12:00;;;;;;;10.13;2.90;;;;;;;11.08;100.00;98024.50;6300467;28;20052;-82
2024/02/11 06:15:03;;;;;;;6.15;3.13;;;;;;;10.93;100.00;98028.53;6302810;28;20048;-82
2024/02/11 06:18:04;;;;;;;7.20;2.83;;;;;;;11.08;100.00;98023.66;6283583;28;20454;-80
2024/02/11 06:21:06;;;;;;;7.18;2.72;;;;;;;11.06;100.00;98020.38;6301110;28;20044;-80
2024/02/11 06:24:09;;;;;;;6.85;2.45;;;;;;;11.08;100.00;98003.59;6306448;28;20075;-80
2024/02/11 06:27:10;;;;;;;6.63;2.58;;;;;;;11.15;100.00;98009.06;6299219;28;20044;-82
2024/02/11 06:30:14;;;;;;;8.25;2.90;;;;;;;11.12;100.00;98016.34;6286195;28;20499;-80
2024/02/11 06:33:16;;;;;;;6.97;2.58;;;;;;;11.12;100.00;98011.97;6304016;28;20084;-82
2024/02/11 06:36:17;;;;;;;7.65;2.90;;;;;;;11.16;100.00;98015.09;6321297;28;20403;-82
2024/02/11 06:39:21;;;;;;;10.32;4.15;;;;;;;10.99;100.00;97999.25;6307162;28;20048;-82
2024/02/11 06:42:21;;;;;;;12.93;3.40;;;;;;;11.13;100.00;98012.78;6320968;28;20102;-82
2024/02/11 06:45:23;;;;;;;9.35;2.58;;;;;;;11.13;100.00;98024.03;6307597;28;20045;-80
2024/02/11 06:48:24;;;;;;;9.23;4.00;;;;;;;11.07;100.00;98014.19;6293185;28;20087;-80
2024/02/11 06:51:25;;;;;;;6.23;2.37;;;;;;;10.97;100.00;98024.66;6302790;28;20076;-82
2024/02/11 06:54:28;;;;;;;10.63;3.53;;;;;;;11.08;100.00;98014.06;6311443;28;20047;-82
2024/02/11 06:57:34;;;;;;;9.70;4.00;;;;;;;11.20;100.00;98013.81;6281697;28;20049;-82
2024/02/11 07:00:38;;;;;;;17.35;4.70;;;;;;;11.17;100.00;98009.72;6299221;28;20269;-80
2024/02/11 07:03:39;;;;;;;8.25;3.90;;;;;;;11.13;100.00;98018.00;6298898;28;20051;-83
2024/02/11 07:06:44;;;;;;;10.38;3.95;;;;;;;11.19;100.00;98027.84;6281105;28;20048;-80
2024/02/11 07:09:45;;;;;;;41.17;13.13;;;;;;;11.26;100.00;98027.13;6300195;28;20102;-80
2024/02/11 07:12:46;;;;;;;22.48;9.52;;;;;;;11.24;100.00;98031.69;6315338;28;20048;-80
2024/02/11 07:15:48;;;;;;;16.73;6.82;;;;;;;11.36;100.00;98026.22;6313627;28;20051;-82
2024/02/11 07:18:48;;;;;;;37.85;16.42;;;;;;;11.41;100.00;98035.28;6309559;28;20048;-80
2024/02/11 07:21:49;;;;;;;19.13;8.43;;;;;;;11.48;100.00;98031.09;6285350;28;20091;-82
2024/02/11 07:24:53;;;;;;;12.95;4.35;;;;;;;11.57;100.00;98034.63;6297914;28;20048;-82
2024/02/11 07:27:53;;;;;;;6.35;3.53;;;;;;;11.56;100.00;98034.75;6298426;28;20416;-80
2024/02/11 07:30:56;;;;;;;7.47;3.35;;;;;;;11.50;100.00;98028.34;6289858;28;20052;-83
2024/02/11 07:33:57;;;;;;;6.70;2.85;;;;;;;11.48;100.00;98027.66;6308261;28;20036;-83
2024/02/11 07:37:02;;;;;;;7.93;4.20;;;;;;;11.53;100.00;98033.28;6323816;28;20044;-82
2024/02/11 07:40:09;;;;;;;6.57;3.80;;;;;;;11.58;100.00;98028.41;6305611;28;20051;-82
2024/02/11 07:43:10;;;;;;;10.88;3.67;;;;;;;11.61;100.00;98032.50;6314215;28;20044;-82
2024/02/11 07:46:13;;;;;;;9.32;4.53;;;;;;;11.60;100.00;98034.31;6321093;28;20050;-80
2024/02/11 07:49:14;;;;;;;13.40;5.07;;;;;;;11.83;100.00;98045.13;6305203;28;20549;-82
2024/02/11 07:52:17;;;;;;;9.93;4.18;;;;;;;11.86;100.00;98029.16;6303347;28;20044;-82
2024/02/11 07:55:17;;;;;;;7.85;3.65;;;;;;;11.82;100.00;98027.81;6304147;28;20098;-82
2024/02/11 07:58:18;;;;;;;8.80;4.38;;;;;;;11.93;100.00;98025.97;6305355;28;20488;-81
2024/02/11 08:01:19;;;;;;;9.82;4.38;;;;;;;11.89;100.00;98026.25;6300511;28;20083;-82
2024/02/11 08:04:20;;;;;;;18.45;5.13;;;;;;;11.90;100.00;98024.44;6295110;28;20055;-81
2024/02/11 08:07:23;;;;;;;6.78;3.83;;;;;;;11.89;100.00;98025.44;6279619;28;20507;-82
2024/02/11 08:10:24;;;;;;;12.90;5.07;;;;;;;11.95;100.00;98017.00;6305387;28;20426;-81
2024/02/11 08:13:25;;;;;;;10.77;5.25;;;;;;;12.02;100.00;98018.00;6293876;28;20051;-82
2024/02/11 08:16:26;;;;;;;14.88;5.32;;;;;;;12.03;100.00;98014.44;6300088;28;20119;-81
2024/02/11 08:19:28;;;;;;;8.45;4.32;;;;;;;12.15;100.00;98019.41;6303106;28;20064;-83
2024/02/11 08:22:30;;;;;;;14.32;4.57;;;;;;;12.05;100.00;98014.28;6306961;28;20048;-82
2024/02/11 08:25:31;;;;;;;12.35;4.25;;;;;;;12.16;100.00;98018.44;6304611;28;20409;-80
2024/02/11 08:28:34;;;;;;;8.87;4.30;;;;;;;12.06;100.00;98015.91;6294244;28;20054;-81
2024/02/11 08:31:35;;;;;;;10.98;4.43;;;;;;;12.18;100.00;98009.47;6294207;28;20289;-82
2024/02/11 08:34:36;;;;;;;10.50;4.57;;;;;;;12.03;100.00;98014.44;6315485;28;20130;-82
2024/02/11 08:37:37;;;;;;;12.70;4.30;;;;;;;12.13;100.00;98018.72;6301149;28;20047;-82
2024/02/11 08:40:38;;;;;;;13.18;5.70;;;;;;;12.08;100.00;98014.78;6304354;28;20051;-81
2024/02/11 08:43:39;;;;;;;16.88;7.75;;;;;;;12.04;100.00;98015.25;6322243;28;20406;-81
2024/02/11 08:46:40;;;;;;;14.70;6.47;;;;;;;12.04;100.00;98002.19;6315222;28;20068;-82
2024/02/11 08:49:41;;;;;;;9.52;5.10;;;;;;;12.10;100.00;98018.06;6322519;28;20482;-82
2024/02/11 08:52:43;;;;;;;14.45;6.22;;;;;;;12.18;100.00;98025.16;6304283;28;20059;-82
2024/02/11 08:55:45;;;;;;;13.30;6.40;;;;;;;12.36;100.00;98016.47;6300931;28;20044;-82
2024/02/11 08:58:46;;;;;;;;;;;;;;;12.36;100.00;98012.03;6318136;28;20043;-82
2024/02/11 09:01:51;;;;;;;10.05;5.63;;;;;;;12.35;100.00;98026.06;6338629;27;20023;-82
2024/02/11 09:04:53;;;;;;;18.15;4.93;;;;;;;12.54;99.92;98029.44;6303879;28;20492;-81
2024/02/11 09:07:54;;;;;;;11.32;5.60;;;;;;;12.56;100.00;98023.09;6303083;28;20048;-80
2024/02/11 09:10:57;;;;;;;10.67;5.70;;;;;;;12.64;100.00;98036.22;6312336;28;20051;-81
2024/02/11 09:14:00;;;;;;;;;;;;;;;12.59;100.00;98037.66;6294214;28;20300;-80
2024/02/11 09:17:03;;;;;;;11.18;5.53;;;;;;;12.47;100.00;98034.47;6302914;28;19920;-80
2024/02/11 09:20:08;;;;;;;11.73;5.65;;;;;;;12.47;100.00;98037.09;6286147;28;20056;-83
2024/02/11 09:23:12;;;;;;;12.88;5.15;;;;;;;12.67;100.00;98040.31;6296517;28;20048;-83
2024/02/11 09:26:12;;;;;;;13.30;5.38;;;;;;;12.65;100.00;98042.28;6301551;28;20069;-80
2024/02/11 09:29:13;;;;;;;10.20;5.88;;;;;;;12.66;100.00;98042.13;6310972;28;20075;-80
2024/02/11 09:32:14;;;;;;;10.20;5.63;;;;;;;12.75;100.00;98048.22;6286429;28;20131;-80
2024/02/11 09:35:20;;;;;;;8.43;4.70;;;;;;;12.74;100.00;98037.91;6293877;28;20044;-80
2024/02/11 09:38:21;;;;;;;18.15;6.65;;;;;;;12.76;100.00;98049.03;6285500;28;20141;-80
2024/02/11 09:41:27;;;;;;;13.40;5.68;;;;;;;12.63;100.00;98042.41;6278861;28;20060;-80
2024/02/11 09:44:35;;;;;;;10.15;4.93;;;;;;;12.73;100.00;98044.13;6296465;28;20044;-83
2024/02/11 09:47:39;;;;;;;9.73;4.90;;;;;;;12.74;100.00;98032.66;6308871;28;20048;-82
2024/02/11 09:50:42;;;;;;;11.40;4.65;;;;;;;12.75;100.00;98039.56;6307562;28;20292;-83
2024/02/11 09:53:45;;;;;;;11.40;5.68;;;;;;;12.67;100.00;98041.13;6279219;28;20491;-82
2024/02/11 09:56:48;;;;;;;15.10;4.68;;;;;;;12.84;100.00;98041.22;6313719;28;20052;-83
2024/02/11 09:59:49;;;;;;;8.73;4.30;;;;;;;12.91;100.00;98042.25;6285594;28;20323;-80
2024/02/11 10:02:54;;;;;;;15.77;5.60;;;;;;;12.86;100.00;98034.84;6283235;28;20106;-80
2024/02/11 10:05:58;;;;;;;10.48;4.72;;;;;;;12.80;100.00;98032.84;6283094;28;20053;-83
2024/02/11 10:08:59;;;;;;;10.82;4.65;;;;;;;12.65;100.00;98030.00;6301357;28;20523;-83
2024/02/11 10:12:03;;;;;;;11.65;5.18;;;;;;;12.66;100.00;98026.44;6302926;28;20048;-84
2024/02/11 10:15:16;;;;;;;7.00;4.63;;;;;;;12.80;100.00;98029.41;6300853;28;20066;-82
2024/02/11 10:18:17;;;;;;;;;;;;;;;12.83;100.00;98026.50;6300783;28;20056;-83
2024/02/11 10:21:18;;;;;;;11.05;4.80;;;;;;;12.82;100.00;98017.00;6314782;28;20018;-83
2024/02/11 10:24:19;;;;;;;15.13;6.63;;;;;;;12.88;100.00;98005.91;6300382;28;20090;-81
2024/02/11 10:27:25;;;;;;;19.80;6.72;;;;;;;13.03;100.00;98006.94;6307351;28;20139;-81
2024/02/11 10:30:29;;;;;;;12.82;5.90;;;;;;;13.10;100.00;98005.31;6312160;28;20138;-80
2024/02/11 10:33:32;;;;;;;9.38;4.88;;;;;;;13.21;100.00;97993.72;6294137;28;20541;-81
2024/02/11 10:36:35;;;;;;;8.25;4.55;;;;;;;13.20;100.00;97989.47;6297931;28;20052;-80
2024/02/11 10:39:42;;;;;;;10.50;4.43;;;;;;;13.24;100.00;97992.56;6303554;28;20047;-81
2024/02/11 10:42:50;;;;;;;8.00;3.88;;;;;;;13.35;100.00;97986.25;6302815;28;20048;-80
2024/02/11 10:45:51;;;;;;;17.15;5.15;;;;;;;13.39;100.00;97985.75;6318257;28;20044;-80
2024/02/11 10:48:53;;;;;;;11.65;4.55;;;;;;;13.52;100.00;97977.41;6317095;28;20044;-80
2024/02/11 10:52:02;;;;;;;18.92;8.07;;;;;;;13.58;100.00;97962.84;6302533;28;20040;-80
2024/02/11 10:55:04;;;;;;;11.43;5.80;;;;;;;13.68;100.00;97971.38;6320740;28;20097;-80
2024/02/11 10:58:08;;;;;;;;;;;;;;;13.79;100.00;97970.22;6303289;28;20048;-81
2024/02/11 11:01:10;;;;;;;16.25;7.15;;;;;;;13.99;100.00;97970.69;6311352;28;20399;-80
2024/02/11 11:04:18;;;;;;;14.65;6.50;;;;;;;14.18;100.00;97964.25;6306869;28;20052;-80
2024/02/11 11:07:20;;;;;;;28.50;12.77;;;;;;;14.29;99.65;97964.75;6297391;28;20041;-80
2024/02/11 11:10:21;;;;;;;22.13;10.65;;;;;;;14.29;96.90;97959.50;6297951;28;20534;-84
2024/02/11 11:13:24;;;;;;;38.60;14.73;;;;;;;14.45;98.40;97953.34;6322498;28;20048;-81
2024/02/11 11:16:30;;;;;;;32.65;14.13;;;;;;;14.62;95.98;97951.53;6321729;28;20048;-80
2024/02/11 11:19:32;;;;;;;49.15;20.13;;;;;;;14.77;92.10;97945.56;6281182;28;20057;-80
2024/02/11 11:22:33;;;;;;;24.73;9.98;;;;;;;14.97;93.66;97951.19;6266912;28;20057;-84
2024/02/11 11:25:34;;;;;;;22.30;6.90;;;;;;;14.98;88.40;97948.41;6273088;28;20080;-83
2024/02/11 11:28:41;;;;;;;15.50;6.00;;;;;;;15.10;87.23;97952.25;6269973;28;20178;-84
2024/02/11 11:31:45;;;;;;;12.02;5.18;;;;;;;15.17;87.30;97952.38;6271583;28;20071;-81
2024/02/11 11:34:49;;;;;;;8.07;3.53;;;;;;;15.22;85.75;97942.19;6272247;28;20041;-81
2024/02/11 11:37:52;;;;;;;7.53;2.63;;;;;;;15.26;88.66;97948.72;6271513;28;20051;-84
2024/02/11 11:40:56;;;;;;;8.23;2.95;;;;;;;15.31;88.10;97940.31;6268848;28;20657;-82
2024/02/11 11:44:03;;;;;;;6.28;2.45;;;;;;;15.32;87.00;97934.06;6270158;28;20041;-82
2024/02/11 11:47:05;;;;;;;9.85;1.80;;;;;;;15.49;85.38;97942.66;6268564;28;20102;-82
2024/02/11 11:50:07;;;;;;;;;;;;;;;15.58;83.16;97927.63;6264705;28;20115;-82
2024/02/11 11:53:08;;;;;;;5.55;2.00;;;;;;;15.60;82.68;97926.44;6265022;28;19928;-81
2024/02/11 11:56:10;;;;;;;5.13;1.73;;;;;;;15.74;81.40;97921.44;6269794;28;20080;-83
2024/02/11 11:59:12;;;;;;;7.38;1.95;;;;;;;15.85;80.74;97918.38;6272328;28;20045;-83
2024/02/11 12:02:15;;;;;;;8.60;2.42;;;;;;;15.89;79.62;97911.75;6272974;28;20098;-80
2024/02/11 12:05:16;;;;;;;5.47;2.10;;;;;;;15.99;78.97;97925.44;6269015;28;20052;-84
2024/02/11 12:08:17;;;;;;;5.75;2.13;;;;;;;16.09;77.72;97919.94;6271872;28;20045;-83
2024/02/11 12:11:20;;;;;;;7.32;2.55;;;;;;;16.17;78.25;97917.22;6272142;28;20053;-83
2024/02/11 12:14:22;;;;;;;7.18;2.60;;;;;;;16.25;78.56;97922.38;6272166;28;20056;-83
2024/02/11 12:17:23;;;;;;;3.95;2.17;;;;;;;16.26;79.92;97915.31;6271769;28;20213;-83
2024/02/11 12:20:25;;;;;;;8.65;2.80;;;;;;;16.18;79.71;97904.88;6252556;28;20130;-83
2024/02/11 12:23:26;;;;;;;7.60;2.42;;;;;;;16.29;81.38;97901.81;6250706;28;20049;-83
2024/02/11 12:26:27;;;;;;;7.60;1.70;;;;;;;16.17;83.05;97908.50;6264255;28;20080;-83
2024/02/11 12:29:28;;;;;;;;;;;;;;;16.12;79.41;97906.41;6264370;28;20053;-82
2024/02/11 12:32:31;;;;;;;11.07;1.80;;;;;;;16.01;79.79;97902.41;6260037;28;19928;-83
2024/02/11 12:35:35;;;;;;;4.32;1.20;;;;;;;16.01;81.39;97912.13;6265388;28;20080;-84
2024/02/11 12:38:43;;;;;;;6.35;1.80;;;;;;;16.03;83.62;97916.22;6272669;28;20044;-83
2024/02/11 12:41:47;;;;;;;10.07;2.10;;;;;;;15.93;83.39;97910.41;6271033;28;20048;-83
2024/02/11 12:44:49;;;;;;;3.10;1.85;;;;;;;15.85;82.34;97921.00;6272999;28;20049;-84
2024/02/11 12:47:50;;;;;;;5.78;1.25;;;;;;;15.77;80.62;97919.25;6272681;28;20059;-84
2024/02/11 12:50:51;;;;;;;6.85;2.05;;;;;;;15.68;82.88;97926.38;6272539;28;20051;-83
2024/02/11 12:53:52;;;;;;;6.85;1.52;;;;;;;15.69;85.25;97925.38;6272481;28;20044;-84
2024/02/11 12:56:55;;;;;;;7.90;2.35;;;;;;;15.58;85.03;97917.91;6271059;28;20489;-83
2024/02/11 12:59:58;;;;;;;6.28;1.83;;;;;;;15.57;84.45;97921.56;6272663;28;20063;-84
2024/02/11 13:03:01;;;;;;;3.08;1.23;;;;;;;15.46;82.69;97927.22;6272118;28;20076;-84
2024/02/11 13:06:02;;;;;;;5.45;2.42;;;;;;;15.42;84.47;97913.63;6271474;28;20132;-83
2024/02/11 13:09:03;;;;;;;2.05;1.20;;;;;;;15.13;86.19;97922.19;6283436;28;20052;-84
2024/02/11 13:12:04;;;;;;;3.70;1.42;;;;;;;15.23;88.07;97920.16;6294974;28;20197;-83
2024/02/11 13:15:09;;;;;;;5.68;1.73;;;;;;;15.13;88.71;97934.53;6296056;28;20052;-83
2024/02/11 13:18:13;;;;;;;5.15;1.60;;;;;;;15.10;89.16;97927.81;6299715;28;20516;-84
2024/02/11 13:21:17;;;;;;;1.30;0.90;;;;;;;15.15;88.76;97933.34;6328149;28;20074;-80
2024/02/11 13:24:18;;;;;;;7.93;2.10;;;;;;;15.14;91.25;97936.16;6340056;28;20055;-80
2024/02/11 13:27:19;;;;;;;16.48;4.20;;;;;;;15.06;94.52;97934.41;6320365;28;20052;-83
2024/02/11 13:30:22;;;;;;;15.63;5.68;;;;;;;15.07;95.37;97928.97;6307959;28;20058;-83
2024/02/11 13:33:25;;;;;;;30.70;8.00;;;;;;;15.01;94.50;97932.31;6309483;28;20050;-80
2024/02/11 13:36:27;;;;;;;36.38;8.90;;;;;;;15.17;96.08;97944.50;6315814;28;20051;-80
2024/02/11 13:39:29;;;;;;;17.80;5.13;;;;;;;15.17;95.55;97939.25;6304876;28;20058;-83
2024/02/11 13:42:30;;;;;;;7.97;2.40;;;;;;;15.09;97.85;97952.44;6307583;28;20446;-82
2024/02/11 13:45:30;;;;;;;3.08;1.90;;;;;;;14.96;99.91;97963.50;6302976;28;20044;-81
2024/02/11 13:48:33;;;;;;;4.00;1.45;;;;;;;14.71;100.00;97968.88;6288751;28;20059;-81
2024/02/11 13:51:35;;;;;;;0.90;0.77;;;;;;;14.72;100.00;97969.69;6307971;28;20055;-80
2024/02/11 13:54:36;;;;;;;1.30;0.80;;;;;;;14.69;100.00;97977.91;6288351;28;20040;-83
2024/02/11 13:57:37;;;;;;;2.53;0.90;;;;;;;14.60;100.00;97981.53;6307752;28;20055;-83
2024/02/11 14:00:38;;;;;;;2.03;0.98;;;;;;;14.44;100.00;97982.41;6307270;28;20079;-83
2024/02/11 14:03:41;;;;;;;2.55;1.30;;;;;;;14.49;100.00;97974.81;6286687;28;20037;-80
2024/02/11 14:06:43;;;;;;;9.93;2.28;;;;;;;14.47;100.00;97990.72;6285131;28;20048;-83
2024/02/11 14:09:44;;;;;;;7.38;3.05;;;;;;;14.47;100.00;98001.22;6290320;28;20465;-80